sensor_id;sensor_type;location;lat;lon;timestamp;P1;durP1;ratioP1;P2;durP2;ratioP2
20734;SDS011;10528;52.124;5.196;2024-02-26T00:00:11;4.60;;;3.20;;
20734;SDS011;10528;52.124;5.196;2024-02-26T00:02:39;5.55;;;3.20;;
20734;SDS011;10528;52.124;5.196;2024-02-26T00:05:06;4.78;;;3.30;;
20734;SDS011;10528;52.124;5.196;2024-02-26T00:07:34;6.30;;;2.92;;
20734;SDS011;10528;52.124;5.196;2024-02-26T00:10:02;4.38;;;3.42;;
20734;SDS011;10528;52.124;5.196;2024-02-26T00:12:30;4.88;;;3.38;;
20734;SDS011;10528;52.124;5.196;2024-02-26T00:14:57;6.10;;;3.55;;
20734;SDS011;10528;52.124;5.196;2024-02-26T00:17:24;3.85;;;2.97;;
20734;SDS011;10528;52.124;5.196;2024-02-26T00:19:51;5.10;;;3.03;;
20734;SDS011;10528;52.124;5.196;2024-02-26T00:22:19;5.65;;;3.55;;
20734;SDS011;10528;52.124;5.196;2024-02-26T00:24:48;4.78;;;3.50;;
20734;SDS011;10528;52.124;5.196;2024-02-26T00:27:15;5.10;;;3.20;;
20734;SDS011;10528;52.124;5.196;2024-02-26T00:29:42;7.90;;;3.58;;
20734;SDS011;10528;52.124;5.196;2024-02-26T00:32:09;5.53;;;3.60;;
20734;SDS011;10528;52.124;5.196;2024-02-26T00:34:36;5.40;;;3.30;;
20734;SDS011;10528;52.124;5.196;2024-02-26T00:37:03;5.57;;;3.40;;
20734;SDS011;10528;52.124;5.196;2024-02-26T00:39:30;5.55;;;3.70;;
20734;SDS011;10528;52.124;5.196;2024-02-26T00:41:57;4.82;;;3.58;;
20734;SDS011;10528;52.124;5.196;2024-02-26T00:44:24;5.68;;;3.80;;
20734;SDS011;10528;52.124;5.196;2024-02-26T00:46:50;5.43;;;4.35;;
20734;SDS011;10528;52.124;5.196;2024-02-26T00:49:17;5.18;;;3.67;;
20734;SDS011;10528;52.124;5.196;2024-02-26T00:51:44;6.03;;;4.35;;
20734;SDS011;10528;52.124;5.196;2024-02-26T00:54:11;7.95;;;4.25;;
20734;SDS011;10528;52.124;5.196;2024-02-26T00:56:38;5.97;;;4.50;;
20734;SDS011;10528;52.124;5.196;2024-02-26T00:59:05;6.43;;;4.28;;
20734;SDS011;10528;52.124;5.196;2024-02-26T01:01:32;6.30;;;4.82;;
20734;SDS011;10528;52.124;5.196;2024-02-26T01:03:59;5.68;;;4.80;;
20734;SDS011;10528;52.124;5.196;2024-02-26T01:06:26;7.28;;;4.78;;
20734;SDS011;10528;52.124;5.196;2024-02-26T01:08:53;6.63;;;4.78;;
20734;SDS011;10528;52.124;5.196;2024-02-26T01:11:20;6.15;;;5.03;;
20734;SDS011;10528;52.124;5.196;2024-02-26T01:13:47;6.82;;;4.60;;
20734;SDS011;10528;52.124;5.196;2024-02-26T01:16:14;6.50;;;4.97;;
20734;SDS011;10528;52.124;5.196;2024-02-26T01:18:41;6.57;;;5.13;;
20734;SDS011;10528;52.124;5.196;2024-02-26T01:21:08;7.18;;;4.97;;
20734;SDS011;10528;52.124;5.196;2024-02-26T01:23:35;6.55;;;5.18;;
20734;SDS011;10528;52.124;5.196;2024-02-26T01:26:02;5.78;;;4.95;;
20734;SDS011;10528;52.124;5.196;2024-02-26T01:28:30;7.72;;;4.97;;
20734;SDS011;10528;52.124;5.196;2024-02-26T01:30:57;8.75;;;5.25;;
20734;SDS011;10528;52.124;5.196;2024-02-26T01:33:26;7.60;;;5.20;;
20734;SDS011;10528;52.124;5.196;2024-02-26T01:35:53;7.15;;;4.93;;
20734;SDS011;10528;52.124;5.196;2024-02-26T01:38:20;7.53;;;5.00;;
20734;SDS011;10528;52.124;5.196;2024-02-26T01:40:47;6.25;;;4.85;;
20734;SDS011;10528;52.124;5.196;2024-02-26T01:43:14;6.38;;;5.50;;
20734;SDS011;10528;52.124;5.196;2024-02-26T01:45:41;6.10;;;5.25;;
20734;SDS011;10528;52.124;5.196;2024-02-26T01:48:08;6.53;;;5.45;;
20734;SDS011;10528;52.124;5.196;2024-02-26T01:50:37;8.23;;;5.85;;
20734;SDS011;10528;52.124;5.196;2024-02-26T01:53:06;6.05;;;5.20;;
20734;SDS011;10528;52.124;5.196;2024-02-26T01:55:35;6.47;;;5.30;;
20734;SDS011;10528;52.124;5.196;2024-02-26T01:58:06;6.47;;;5.20;;
20734;SDS011;10528;52.124;5.196;2024-02-26T02:00:33;8.82;;;5.75;;
20734;SDS011;10528;52.124;5.196;2024-02-26T02:03:01;7.00;;;5.55;;
20734;SDS011;10528;52.124;5.196;2024-02-26T02:05:30;9.90;;;5.70;;
20734;SDS011;10528;52.124;5.196;2024-02-26T02:07:57;7.85;;;5.80;;
20734;SDS011;10528;52.124;5.196;2024-02-26T02:10:25;6.45;;;5.80;;
20734;SDS011;10528;52.124;5.196;2024-02-26T02:12:54;15.63;;;5.70;;
20734;SDS011;10528;52.124;5.196;2024-02-26T02:15:21;7.65;;;6.13;;
20734;SDS011;10528;52.124;5.196;2024-02-26T02:17:48;7.55;;;5.65;;
20734;SDS011;10528;52.124;5.196;2024-02-26T02:20:16;9.10;;;6.18;;
20734;SDS011;10528;52.124;5.196;2024-02-26T02:22:45;8.07;;;6.50;;
20734;SDS011;10528;52.124;5.196;2024-02-26T02:25:12;9.25;;;6.40;;
20734;SDS011;10528;52.124;5.196;2024-02-26T02:27:40;7.82;;;5.97;;
20734;SDS011;10528;52.124;5.196;2024-02-26T02:30:08;9.75;;;7.00;;
20734;SDS011;10528;52.124;5.196;2024-02-26T02:32:37;9.32;;;6.80;;
20734;SDS011;10528;52.124;5.196;2024-02-26T02:35:09;8.27;;;6.85;;
20734;SDS011;10528;52.124;5.196;2024-02-26T02:37:36;8.95;;;6.88;;
20734;SDS011;10528;52.124;5.196;2024-02-26T02:40:03;8.70;;;6.82;;
20734;SDS011;10528;52.124;5.196;2024-02-26T02:42:31;8.23;;;6.88;;
20734;SDS011;10528;52.124;5.196;2024-02-26T02:44:58;10.63;;;7.45;;
20734;SDS011;10528;52.124;5.196;2024-02-26T02:47:25;8.43;;;7.07;;
20734;SDS011;10528;52.124;5.196;2024-02-26T02:49:52;8.65;;;7.18;;
20734;SDS011;10528;52.124;5.196;2024-02-26T02:52:19;10.93;;;7.25;;
20734;SDS011;10528;52.124;5.196;2024-02-26T02:54:46;10.63;;;8.40;;
20734;SDS011;10528;52.124;5.196;2024-02-26T02:57:13;8.95;;;7.30;;
20734;SDS011;10528;52.124;5.196;2024-02-26T02:59:40;9.32;;;7.35;;
20734;SDS011;10528;52.124;5.196;2024-02-26T03:02:07;11.52;;;8.00;;
20734;SDS011;10528;52.124;5.196;2024-02-26T03:04:34;9.45;;;7.88;;
20734;SDS011;10528;52.124;5.196;2024-02-26T03:07:01;13.25;;;7.97;;
20734;SDS011;10528;52.124;5.196;2024-02-26T03:09:28;10.98;;;7.80;;
20734;SDS011;10528;52.124;5.196;2024-02-26T03:11:55;10.35;;;8.30;;
20734;SDS011;10528;52.124;5.196;2024-02-26T03:14:22;11.18;;;7.80;;
20734;SDS011;10528;52.124;5.196;2024-02-26T03:16:50;11.10;;;8.32;;
20734;SDS011;10528;52.124;5.196;2024-02-26T03:19:21;10.55;;;8.80;;
20734;SDS011;10528;52.124;5.196;2024-02-26T03:21:48;9.82;;;7.70;;
20734;SDS011;10528;52.124;5.196;2024-02-26T03:24:15;12.40;;;9.18;;
20734;SDS011;10528;52.124;5.196;2024-02-26T03:26:42;11.20;;;8.00;;
20734;SDS011;10528;52.124;5.196;2024-02-26T03:29:09;12.15;;;8.82;;
20734;SDS011;10528;52.124;5.196;2024-02-26T03:31:36;11.02;;;8.77;;
20734;SDS011;10528;52.124;5.196;2024-02-26T03:34:03;11.60;;;8.35;;
20734;SDS011;10528;52.124;5.196;2024-02-26T03:36:30;14.25;;;7.90;;
20734;SDS011;10528;52.124;5.196;2024-02-26T03:38:57;10.55;;;8.32;;
20734;SDS011;10528;52.124;5.196;2024-02-26T03:41:25;12.05;;;8.98;;
20734;SDS011;10528;52.124;5.196;2024-02-26T03:43:52;9.95;;;8.15;;
20734;SDS011;10528;52.124;5.196;2024-02-26T03:46:19;11.40;;;8.85;;
20734;SDS011;10528;52.124;5.196;2024-02-26T03:48:46;11.88;;;8.68;;
20734;SDS011;10528;52.124;5.196;2024-02-26T03:51:13;12.35;;;8.40;;
20734;SDS011;10528;52.124;5.196;2024-02-26T03:53:40;11.02;;;8.75;;
20734;SDS011;10528;52.124;5.196;2024-02-26T03:56:07;12.25;;;8.52;;
20734;SDS011;10528;52.124;5.196;2024-02-26T03:58:37;12.38;;;9.38;;
20734;SDS011;10528;52.124;5.196;2024-02-26T04:01:04;11.73;;;9.00;;
20734;SDS011;10528;52.124;5.196;2024-02-26T04:03:34;15.00;;;9.23;;
20734;SDS011;10528;52.124;5.196;2024-02-26T04:06:01;10.80;;;8.75;;
20734;SDS011;10528;52.124;5.196;2024-02-26T04:08:29;10.98;;;8.45;;
20734;SDS011;10528;52.124;5.196;2024-02-26T04:10:56;11.02;;;8.73;;
20734;SDS011;10528;52.124;5.196;2024-02-26T04:13:23;11.00;;;8.77;;
20734;SDS011;10528;52.124;5.196;2024-02-26T04:15:50;10.48;;;8.15;;
20734;SDS011;10528;52.124;5.196;2024-02-26T04:18:17;14.07;;;9.50;;
20734;SDS011;10528;52.124;5.196;2024-02-26T04:20:44;11.93;;;9.00;;
20734;SDS011;10528;52.124;5.196;2024-02-26T04:23:11;10.82;;;8.57;;
20734;SDS011;10528;52.124;5.196;2024-02-26T04:25:38;12.90;;;9.85;;
20734;SDS011;10528;52.124;5.196;2024-02-26T04:28:05;12.60;;;9.50;;
20734;SDS011;10528;52.124;5.196;2024-02-26T04:30:32;12.95;;;9.50;;
20734;SDS011;10528;52.124;5.196;2024-02-26T04:32:59;15.48;;;9.93;;
20734;SDS011;10528;52.124;5.196;2024-02-26T04:35:26;12.00;;;9.63;;
20734;SDS011;10528;52.124;5.196;2024-02-26T04:37:53;13.88;;;9.55;;
20734;SDS011;10528;52.124;5.196;2024-02-26T04:40:20;14.65;;;10.20;;
20734;SDS011;10528;52.124;5.196;2024-02-26T04:42:47;14.88;;;10.15;;
20734;SDS011;10528;52.124;5.196;2024-02-26T04:45:13;13.13;;;10.07;;
20734;SDS011;10528;52.124;5.196;2024-02-26T04:47:41;15.60;;;11.48;;
20734;SDS011;10528;52.124;5.196;2024-02-26T04:50:08;14.50;;;11.40;;
20734;SDS011;10528;52.124;5.196;2024-02-26T04:52:36;14.88;;;11.18;;
20734;SDS011;10528;52.124;5.196;2024-02-26T04:55:03;17.95;;;12.43;;
20734;SDS011;10528;52.124;5.196;2024-02-26T04:57:30;14.85;;;10.95;;
20734;SDS011;10528;52.124;5.196;2024-02-26T04:59:57;15.57;;;11.60;;
20734;SDS011;10528;52.124;5.196;2024-02-26T05:02:24;16.13;;;12.02;;
20734;SDS011;10528;52.124;5.196;2024-02-26T05:04:51;14.82;;;10.82;;
20734;SDS011;10528;52.124;5.196;2024-02-26T05:07:18;16.80;;;11.73;;
20734;SDS011;10528;52.124;5.196;2024-02-26T05:09:46;14.82;;;11.00;;
20734;SDS011;10528;52.124;5.196;2024-02-26T05:12:15;16.80;;;11.93;;
20734;SDS011;10528;52.124;5.196;2024-02-26T05:14:42;16.10;;;11.70;;
20734;SDS011;10528;52.124;5.196;2024-02-26T05:17:09;16.85;;;11.85;;
20734;SDS011;10528;52.124;5.196;2024-02-26T05:19:36;15.65;;;11.27;;
20734;SDS011;10528;52.124;5.196;2024-02-26T05:22:03;15.52;;;11.95;;
20734;SDS011;10528;52.124;5.196;2024-02-26T05:24:30;16.15;;;12.05;;
20734;SDS011;10528;52.124;5.196;2024-02-26T05:26:57;16.17;;;12.40;;
20734;SDS011;10528;52.124;5.196;2024-02-26T05:29:26;14.02;;;11.30;;
20734;SDS011;10528;52.124;5.196;2024-02-26T05:31:53;15.10;;;11.77;;
20734;SDS011;10528;52.124;5.196;2024-02-26T05:34:20;16.30;;;11.77;;
20734;SDS011;10528;52.124;5.196;2024-02-26T05:36:48;16.42;;;11.65;;
20734;SDS011;10528;52.124;5.196;2024-02-26T05:39:15;15.00;;;10.88;;
20734;SDS011;10528;52.124;5.196;2024-02-26T05:41:46;14.70;;;10.88;;
20734;SDS011;10528;52.124;5.196;2024-02-26T05:44:13;15.13;;;11.15;;
20734;SDS011;10528;52.124;5.196;2024-02-26T05:46:41;17.13;;;11.05;;
20734;SDS011;10528;52.124;5.196;2024-02-26T05:49:08;15.27;;;11.15;;
20734;SDS011;10528;52.124;5.196;2024-02-26T05:51:35;17.00;;;12.23;;
20734;SDS011;10528;52.124;5.196;2024-02-26T05:54:02;17.23;;;12.13;;
20734;SDS011;10528;52.124;5.196;2024-02-26T05:56:30;16.05;;;12.32;;
20734;SDS011;10528;52.124;5.196;2024-02-26T05:58:57;17.58;;;11.98;;
20734;SDS011;10528;52.124;5.196;2024-02-26T06:01:23;18.40;;;12.35;;
20734;SDS011;10528;52.124;5.196;2024-02-26T06:03:52;16.80;;;11.60;;
20734;SDS011;10528;52.124;5.196;2024-02-26T06:06:19;17.73;;;12.48;;
20734;SDS011;10528;52.124;5.196;2024-02-26T06:08:48;17.23;;;12.35;;
20734;SDS011;10528;52.124;5.196;2024-02-26T06:11:15;18.75;;;12.18;;
20734;SDS011;10528;52.124;5.196;2024-02-26T06:13:42;17.73;;;12.77;;
20734;SDS011;10528;52.124;5.196;2024-02-26T06:16:09;18.45;;;12.63;;
20734;SDS011;10528;52.124;5.196;2024-02-26T06:18:36;20.70;;;13.55;;
20734;SDS011;10528;52.124;5.196;2024-02-26T06:21:03;19.10;;;13.55;;
20734;SDS011;10528;52.124;5.196;2024-02-26T06:23:31;18.70;;;12.95;;
20734;SDS011;10528;52.124;5.196;2024-02-26T06:25:58;21.05;;;14.00;;
20734;SDS011;10528;52.124;5.196;2024-02-26T06:28:24;20.25;;;14.20;;
20734;SDS011;10528;52.124;5.196;2024-02-26T06:30:51;21.70;;;14.48;;
20734;SDS011;10528;52.124;5.196;2024-02-26T06:33:18;22.33;;;14.18;;
20734;SDS011;10528;52.124;5.196;2024-02-26T06:35:46;22.73;;;15.15;;
20734;SDS011;10528;52.124;5.196;2024-02-26T06:38:12;21.33;;;13.85;;
20734;SDS011;10528;52.124;5.196;2024-02-26T06:40:40;24.13;;;15.35;;
20734;SDS011;10528;52.124;5.196;2024-02-26T06:43:06;23.95;;;15.18;;
20734;SDS011;10528;52.124;5.196;2024-02-26T06:45:33;27.38;;;16.35;;
20734;SDS011;10528;52.124;5.196;2024-02-26T06:48:00;24.35;;;16.00;;
20734;SDS011;10528;52.124;5.196;2024-02-26T06:50:29;24.33;;;16.40;;
20734;SDS011;10528;52.124;5.196;2024-02-26T06:52:56;28.92;;;17.15;;
20734;SDS011;10528;52.124;5.196;2024-02-26T06:55:23;26.25;;;16.58;;
20734;SDS011;10528;52.124;5.196;2024-02-26T06:57:49;27.38;;;18.05;;
20734;SDS011;10528;52.124;5.196;2024-02-26T07:00:16;29.88;;;17.80;;
20734;SDS011;10528;52.124;5.196;2024-02-26T07:02:44;27.90;;;17.85;;
20734;SDS011;10528;52.124;5.196;2024-02-26T07:05:11;25.98;;;16.63;;
20734;SDS011;10528;52.124;5.196;2024-02-26T07:07:38;30.83;;;20.17;;
20734;SDS011;10528;52.124;5.196;2024-02-26T07:10:06;29.38;;;18.85;;
20734;SDS011;10528;52.124;5.196;2024-02-26T07:12:33;30.73;;;20.20;;
20734;SDS011;10528;52.124;5.196;2024-02-26T07:15:03;31.67;;;20.80;;
20734;SDS011;10528;52.124;5.196;2024-02-26T07:17:31;30.17;;;19.90;;
20734;SDS011;10528;52.124;5.196;2024-02-26T07:20:00;32.63;;;20.42;;
20734;SDS011;10528;52.124;5.196;2024-02-26T07:22:29;32.65;;;21.08;;
20734;SDS011;10528;52.124;5.196;2024-02-26T07:24:56;37.63;;;25.13;;
20734;SDS011;10528;52.124;5.196;2024-02-26T07:27:23;34.55;;;22.23;;
20734;SDS011;10528;52.124;5.196;2024-02-26T07:29:50;31.90;;;21.95;;
20734;SDS011;10528;52.124;5.196;2024-02-26T07:32:17;32.30;;;21.45;;
20734;SDS011;10528;52.124;5.196;2024-02-26T07:34:44;34.90;;;23.35;;
20734;SDS011;10528;52.124;5.196;2024-02-26T07:37:11;31.83;;;22.58;;
20734;SDS011;10528;52.124;5.196;2024-02-26T07:39:38;32.10;;;21.83;;
20734;SDS011;10528;52.124;5.196;2024-02-26T07:42:05;29.90;;;21.00;;
20734;SDS011;10528;52.124;5.196;2024-02-26T07:44:33;30.50;;;20.98;;
20734;SDS011;10528;52.124;5.196;2024-02-26T07:47:00;34.72;;;22.92;;
20734;SDS011;10528;52.124;5.196;2024-02-26T07:49:29;32.17;;;21.80;;
20734;SDS011;10528;52.124;5.196;2024-02-26T07:51:56;28.80;;;20.17;;
20734;SDS011;10528;52.124;5.196;2024-02-26T07:54:24;29.80;;;20.65;;
20734;SDS011;10528;52.124;5.196;2024-02-26T07:56:51;29.75;;;20.17;;
20734;SDS011;10528;52.124;5.196;2024-02-26T07:59:19;26.08;;;19.20;;
20734;SDS011;10528;52.124;5.196;2024-02-26T08:01:49;25.02;;;18.17;;
20734;SDS011;10528;52.124;5.196;2024-02-26T08:04:24;24.52;;;17.60;;
20734;SDS011;10528;52.124;5.196;2024-02-26T08:06:53;24.30;;;16.85;;
20734;SDS011;10528;52.124;5.196;2024-02-26T08:09:22;22.17;;;15.98;;
20734;SDS011;10528;52.124;5.196;2024-02-26T08:11:49;22.50;;;16.73;;
20734;SDS011;10528;52.124;5.196;2024-02-26T08:14:16;22.60;;;15.82;;
20734;SDS011;10528;52.124;5.196;2024-02-26T08:16:43;21.35;;;15.55;;
20734;SDS011;10528;52.124;5.196;2024-02-26T08:19:10;18.63;;;14.10;;
20734;SDS011;10528;52.124;5.196;2024-02-26T08:21:39;19.60;;;14.05;;
20734;SDS011;10528;52.124;5.196;2024-02-26T08:24:07;20.67;;;14.60;;
20734;SDS011;10528;52.124;5.196;2024-02-26T08:26:34;17.77;;;13.45;;
20734;SDS011;10528;52.124;5.196;2024-02-26T08:29:01;17.27;;;13.20;;
20734;SDS011;10528;52.124;5.196;2024-02-26T08:31:28;19.17;;;13.68;;
20734;SDS011;10528;52.124;5.196;2024-02-26T08:33:56;15.20;;;11.50;;
20734;SDS011;10528;52.124;5.196;2024-02-26T08:36:24;18.52;;;11.57;;
20734;SDS011;10528;52.124;5.196;2024-02-26T08:38:51;16.17;;;11.88;;
20734;SDS011;10528;52.124;5.196;2024-02-26T08:41:18;15.82;;;11.45;;
20734;SDS011;10528;52.124;5.196;2024-02-26T08:43:45;15.00;;;11.02;;
20734;SDS011;10528;52.124;5.196;2024-02-26T08:46:12;13.55;;;9.70;;
20734;SDS011;10528;52.124;5.196;2024-02-26T08:48:39;15.50;;;10.57;;
20734;SDS011;10528;52.124;5.196;2024-02-26T08:51:07;14.55;;;10.38;;
20734;SDS011;10528;52.124;5.196;2024-02-26T08:53:35;14.20;;;11.10;;
20734;SDS011;10528;52.124;5.196;2024-02-26T08:56:09;13.88;;;10.30;;
20734;SDS011;10528;52.124;5.196;2024-02-26T08:58:43;13.10;;;9.20;;
20734;SDS011;10528;52.124;5.196;2024-02-26T09:01:10;14.95;;;9.80;;
20734;SDS011;10528;52.124;5.196;2024-02-26T09:03:37;13.20;;;10.38;;
20734;SDS011;10528;52.124;5.196;2024-02-26T09:06:04;15.00;;;9.48;;
20734;SDS011;10528;52.124;5.196;2024-02-26T09:08:33;11.82;;;8.75;;
20734;SDS011;10528;52.124;5.196;2024-02-26T09:11:02;12.70;;;9.07;;
20734;SDS011;10528;52.124;5.196;2024-02-26T09:13:29;11.30;;;8.75;;
20734;SDS011;10528;52.124;5.196;2024-02-26T09:15:56;12.98;;;9.00;;
20734;SDS011;10528;52.124;5.196;2024-02-26T09:18:25;13.60;;;8.00;;
20734;SDS011;10528;52.124;5.196;2024-02-26T09:20:52;12.85;;;8.77;;
20734;SDS011;10528;52.124;5.196;2024-02-26T09:23:19;11.52;;;8.77;;
20734;SDS011;10528;52.124;5.196;2024-02-26T09:25:46;12.32;;;8.00;;
20734;SDS011;10528;52.124;5.196;2024-02-26T09:28:12;10.85;;;7.63;;
20734;SDS011;10528;52.124;5.196;2024-02-26T09:30:41;10.85;;;7.85;;
20734;SDS011;10528;52.124;5.196;2024-02-26T09:33:09;13.52;;;7.80;;
20734;SDS011;10528;52.124;5.196;2024-02-26T09:35:38;10.13;;;7.47;;
20734;SDS011;10528;52.124;5.196;2024-02-26T09:38:04;9.80;;;7.30;;
20734;SDS011;10528;52.124;5.196;2024-02-26T09:40:34;10.07;;;7.28;;
20734;SDS011;10528;52.124;5.196;2024-02-26T09:43:01;10.40;;;7.07;;
20734;SDS011;10528;52.124;5.196;2024-02-26T09:45:32;11.85;;;7.90;;
20734;SDS011;10528;52.124;5.196;2024-02-26T09:48:00;11.82;;;7.10;;
20734;SDS011;10528;52.124;5.196;2024-02-26T09:50:31;12.93;;;7.10;;
20734;SDS011;10528;52.124;5.196;2024-02-26T09:52:59;8.80;;;6.25;;
20734;SDS011;10528;52.124;5.196;2024-02-26T09:55:28;12.85;;;7.75;;
20734;SDS011;10528;52.124;5.196;2024-02-26T09:57:55;10.75;;;7.10;;
20734;SDS011;10528;52.124;5.196;2024-02-26T10:00:24;10.18;;;6.65;;
20734;SDS011;10528;52.124;5.196;2024-02-26T10:03:01;8.88;;;7.18;;
20734;SDS011;10528;52.124;5.196;2024-02-26T10:05:31;9.25;;;6.90;;
20734;SDS011;10528;52.124;5.196;2024-02-26T10:08:00;9.75;;;6.95;;
20734;SDS011;10528;52.124;5.196;2024-02-26T10:10:28;12.38;;;7.78;;
20734;SDS011;10528;52.124;5.196;2024-02-26T10:12:55;9.68;;;6.93;;
20734;SDS011;10528;52.124;5.196;2024-02-26T10:15:22;10.85;;;7.10;;
20734;SDS011;10528;52.124;5.196;2024-02-26T10:17:49;10.32;;;7.00;;
20734;SDS011;10528;52.124;5.196;2024-02-26T10:20:17;9.68;;;6.80;;
20734;SDS011;10528;52.124;5.196;2024-02-26T10:22:48;10.55;;;7.03;;
20734;SDS011;10528;52.124;5.196;2024-02-26T10:25:15;9.95;;;7.00;;
20734;SDS011;10528;52.124;5.196;2024-02-26T10:27:42;11.13;;;7.55;;
20734;SDS011;10528;52.124;5.196;2024-02-26T10:30:16;9.65;;;7.28;;
20734;SDS011;10528;52.124;5.196;2024-02-26T10:32:45;10.00;;;6.78;;
20734;SDS011;10528;52.124;5.196;2024-02-26T10:35:14;9.20;;;6.70;;
20734;SDS011;10528;52.124;5.196;2024-02-26T10:37:47;10.68;;;7.20;;
20734;SDS011;10528;52.124;5.196;2024-02-26T10:40:16;9.52;;;6.82;;
20734;SDS011;10528;52.124;5.196;2024-02-26T10:42:43;9.32;;;6.75;;
20734;SDS011;10528;52.124;5.196;2024-02-26T10:45:13;9.13;;;6.90;;
20734;SDS011;10528;52.124;5.196;2024-02-26T10:47:40;9.30;;;7.10;;
20734;SDS011;10528;52.124;5.196;2024-02-26T10:50:10;10.15;;;6.90;;
20734;SDS011;10528;52.124;5.196;2024-02-26T10:52:41;10.32;;;6.85;;
20734;SDS011;10528;52.124;5.196;2024-02-26T10:55:11;10.65;;;6.78;;
20734;SDS011;10528;52.124;5.196;2024-02-26T10:57:47;9.80;;;7.00;;
20734;SDS011;10528;52.124;5.196;2024-02-26T11:00:18;10.55;;;7.55;;
20734;SDS011;10528;52.124;5.196;2024-02-26T11:02:45;9.38;;;6.85;;
20734;SDS011;10528;52.124;5.196;2024-02-26T11:05:14;10.60;;;7.85;;
20734;SDS011;10528;52.124;5.196;2024-02-26T11:07:42;10.30;;;6.97;;
20734;SDS011;10528;52.124;5.196;2024-02-26T11:10:11;8.65;;;6.82;;
20734;SDS011;10528;52.124;5.196;2024-02-26T11:12:38;10.10;;;7.50;;
20734;SDS011;10528;52.124;5.196;2024-02-26T11:15:07;10.20;;;7.03;;
20734;SDS011;10528;52.124;5.196;2024-02-26T11:17:35;8.02;;;6.05;;
20734;SDS011;10528;52.124;5.196;2024-02-26T11:20:05;9.27;;;6.60;;
20734;SDS011;10528;52.124;5.196;2024-02-26T11:22:37;9.93;;;7.05;;
20734;SDS011;10528;52.124;5.196;2024-02-26T11:25:04;9.52;;;7.00;;
20734;SDS011;10528;52.124;5.196;2024-02-26T11:27:34;10.82;;;7.50;;
20734;SDS011;10528;52.124;5.196;2024-02-26T11:30:10;9.07;;;6.95;;
20734;SDS011;10528;52.124;5.196;2024-02-26T11:32:39;9.65;;;7.03;;
20734;SDS011;10528;52.124;5.196;2024-02-26T11:35:10;11.30;;;8.15;;
20734;SDS011;10528;52.124;5.196;2024-02-26T11:37:41;8.60;;;6.63;;
20734;SDS011;10528;52.124;5.196;2024-02-26T11:40:18;10.25;;;7.18;;
20734;SDS011;10528;52.124;5.196;2024-02-26T11:42:46;9.90;;;7.05;;
20734;SDS011;10528;52.124;5.196;2024-02-26T11:48:12;8.85;;;6.40;;
20734;SDS011;10528;52.124;5.196;2024-02-26T11:50:48;10.10;;;7.03;;
20734;SDS011;10528;52.124;5.196;2024-02-26T11:53:27;8.90;;;6.70;;
20734;SDS011;10528;52.124;5.196;2024-02-26T11:58:43;11.18;;;6.78;;
20734;SDS011;10528;52.124;5.196;2024-02-26T12:04:14;8.90;;;6.75;;
20734;SDS011;10528;52.124;5.196;2024-02-26T12:06:53;9.13;;;6.30;;
20734;SDS011;10528;52.124;5.196;2024-02-26T12:09:40;8.48;;;6.25;;
20734;SDS011;10528;52.124;5.196;2024-02-26T12:12:09;9.10;;;6.57;;
20734;SDS011;10528;52.124;5.196;2024-02-26T12:14:40;8.50;;;6.88;;
20734;SDS011;10528;52.124;5.196;2024-02-26T12:17:23;9.38;;;6.22;;
20734;SDS011;10528;52.124;5.196;2024-02-26T12:19:52;8.40;;;6.47;;
20734;SDS011;10528;52.124;5.196;2024-02-26T12:22:20;8.50;;;6.65;;
20734;SDS011;10528;52.124;5.196;2024-02-26T12:24:46;7.90;;;6.10;;
20734;SDS011;10528;52.124;5.196;2024-02-26T12:27:13;8.77;;;6.32;;
20734;SDS011;10528;52.124;5.196;2024-02-26T12:29:41;9.65;;;6.72;;
20734;SDS011;10528;52.124;5.196;2024-02-26T12:32:08;9.20;;;6.40;;
20734;SDS011;10528;52.124;5.196;2024-02-26T12:34:37;8.75;;;6.43;;
20734;SDS011;10528;52.124;5.196;2024-02-26T12:37:04;9.90;;;6.75;;
20734;SDS011;10528;52.124;5.196;2024-02-26T12:39:31;10.65;;;6.57;;
20734;SDS011;10528;52.124;5.196;2024-02-26T12:41:58;10.27;;;6.03;;
20734;SDS011;10528;52.124;5.196;2024-02-26T12:44:26;11.05;;;6.70;;
20734;SDS011;10528;52.124;5.196;2024-02-26T12:46:59;9.43;;;6.10;;
20734;SDS011;10528;52.124;5.196;2024-02-26T12:49:29;9.70;;;6.35;;
20734;SDS011;10528;52.124;5.196;2024-02-26T12:51:57;10.90;;;6.18;;
20734;SDS011;10528;52.124;5.196;2024-02-26T12:54:28;8.27;;;6.20;;
20734;SDS011;10528;52.124;5.196;2024-02-26T12:57:01;9.68;;;6.05;;
20734;SDS011;10528;52.124;5.196;2024-02-26T12:59:30;7.88;;;6.07;;
20734;SDS011;10528;52.124;5.196;2024-02-26T13:01:58;7.32;;;5.22;;
20734;SDS011;10528;52.124;5.196;2024-02-26T13:04:26;7.32;;;5.63;;
20734;SDS011;10528;52.124;5.196;2024-02-26T13:06:56;9.32;;;6.50;;
20734;SDS011;10528;52.124;5.196;2024-02-26T13:09:32;10.73;;;5.95;;
20734;SDS011;10528;52.124;5.196;2024-02-26T13:12:03;8.32;;;6.15;;
20734;SDS011;10528;52.124;5.196;2024-02-26T13:14:32;9.63;;;6.07;;
20734;SDS011;10528;52.124;5.196;2024-02-26T13:17:00;7.85;;;5.82;;
20734;SDS011;10528;52.124;5.196;2024-02-26T13:19:28;9.35;;;5.90;;
20734;SDS011;10528;52.124;5.196;2024-02-26T13:21:56;9.02;;;5.40;;
20734;SDS011;10528;52.124;5.196;2024-02-26T13:24:34;7.43;;;5.70;;
20734;SDS011;10528;52.124;5.196;2024-02-26T13:27:02;8.13;;;6.15;;
20734;SDS011;10528;52.124;5.196;2024-02-26T13:29:31;8.30;;;6.15;;
20734;SDS011;10528;52.124;5.196;2024-02-26T13:31:58;8.63;;;5.80;;
20734;SDS011;10528;52.124;5.196;2024-02-26T13:34:26;8.80;;;5.57;;
20734;SDS011;10528;52.124;5.196;2024-02-26T13:36:54;9.18;;;5.60;;
20734;SDS011;10528;52.124;5.196;2024-02-26T13:39:23;8.07;;;5.63;;
20734;SDS011;10528;52.124;5.196;2024-02-26T13:41:52;8.18;;;5.80;;
20734;SDS011;10528;52.124;5.196;2024-02-26T13:44:20;6.50;;;5.35;;
20734;SDS011;10528;52.124;5.196;2024-02-26T13:46:48;8.00;;;5.40;;
20734;SDS011;10528;52.124;5.196;2024-02-26T13:49:18;8.13;;;5.10;;
20734;SDS011;10528;52.124;5.196;2024-02-26T13:51:45;7.50;;;5.30;;
20734;SDS011;10528;52.124;5.196;2024-02-26T13:54:12;6.47;;;4.93;;
20734;SDS011;10528;52.124;5.196;2024-02-26T13:56:41;7.75;;;5.25;;
20734;SDS011;10528;52.124;5.196;2024-02-26T13:59:11;5.93;;;5.10;;
20734;SDS011;10528;52.124;5.196;2024-02-26T14:01:38;7.30;;;5.20;;
20734;SDS011;10528;52.124;5.196;2024-02-26T14:04:05;6.43;;;4.85;;
20734;SDS011;10528;52.124;5.196;2024-02-26T14:06:35;6.18;;;4.75;;
20734;SDS011;10528;52.124;5.196;2024-02-26T14:09:02;7.60;;;4.80;;
20734;SDS011;10528;52.124;5.196;2024-02-26T14:11:30;6.22;;;4.65;;
20734;SDS011;10528;52.124;5.196;2024-02-26T14:13:57;7.68;;;5.28;;
20734;SDS011;10528;52.124;5.196;2024-02-26T14:16:24;6.63;;;4.60;;
20734;SDS011;10528;52.124;5.196;2024-02-26T14:18:53;6.35;;;4.75;;
20734;SDS011;10528;52.124;5.196;2024-02-26T14:21:20;7.28;;;4.30;;
20734;SDS011;10528;52.124;5.196;2024-02-26T14:23:47;6.43;;;4.32;;
20734;SDS011;10528;52.124;5.196;2024-02-26T14:26:14;5.90;;;4.25;;
20734;SDS011;10528;52.124;5.196;2024-02-26T14:28:41;6.28;;;4.45;;
20734;SDS011;10528;52.124;5.196;2024-02-26T14:31:08;6.75;;;4.28;;
20734;SDS011;10528;52.124;5.196;2024-02-26T14:33:39;4.78;;;3.60;;
20734;SDS011;10528;52.124;5.196;2024-02-26T14:36:07;6.00;;;4.10;;
20734;SDS011;10528;52.124;5.196;2024-02-26T14:38:34;5.95;;;4.32;;
20734;SDS011;10528;52.124;5.196;2024-02-26T14:41:02;8.82;;;4.15;;
20734;SDS011;10528;52.124;5.196;2024-02-26T14:43:29;5.60;;;4.22;;
20734;SDS011;10528;52.124;5.196;2024-02-26T14:45:58;5.30;;;3.90;;
20734;SDS011;10528;52.124;5.196;2024-02-26T14:48:28;5.22;;;3.85;;